sensor_id;sensor_type;location;lat;lon;timestamp;temperature;humidity
5972;DHT22;3012;49.944;8.454;2024-03-23T00:54:44;10.50;99.90
5972;DHT22;3012;49.944;8.454;2024-03-23T01:08:41;10.30;99.90
5972;DHT22;3012;49.944;8.454;2024-03-23T01:11:42;10.20;99.90
5972;DHT22;3012;49.944;8.454;2024-03-23T01:17:53;10.50;99.90
5972;DHT22;3012;49.944;8.454;2024-03-23T01:20:42;10.30;99.90
5972;DHT22;3012;49.944;8.454;2024-03-23T01:23:25;10.30;99.90
5972;DHT22;3012;49.944;8.454;2024-03-23T01:25:56;9.90;99.90
5972;DHT22;3012;49.944;8.454;2024-03-23T01:35:59;10.00;99.90
5972;DHT22;3012;49.944;8.454;2024-03-23T01:38:27;10.30;99.90
5972;DHT22;3012;49.944;8.454;2024-03-23T01:40:57;9.50;99.90
5972;DHT22;3012;49.944;8.454;2024-03-23T01:43:25;10.10;99.90
5972;DHT22;3012;49.944;8.454;2024-03-23T01:45:53;10.10;99.90
5972;DHT22;3012;49.944;8.454;2024-03-23T01:48:21;10.00;99.90
5972;DHT22;3012;49.944;8.454;2024-03-23T01:51:05;10.20;99.90
5972;DHT22;3012;49.944;8.454;2024-03-23T01:53:34;9.90;99.90
5972;DHT22;3012;49.944;8.454;2024-03-23T01:56:19;9.90;99.90
5972;DHT22;3012;49.944;8.454;2024-03-23T01:59:32;10.10;99.90
5972;DHT22;3012;49.944;8.454;2024-03-23T02:01:59;10.20;99.90
5972;DHT22;3012;49.944;8.454;2024-03-23T02:04:28;10.00;99.90
5972;DHT22;3012;49.944;8.454;2024-03-23T02:06:56;10.40;99.90
5972;DHT22;3012;49.944;8.454;2024-03-23T02:09:23;9.50;99.90
5972;DHT22;3012;49.944;8.454;2024-03-23T02:11:50;10.10;99.90
5972;DHT22;3012;49.944;8.454;2024-03-23T02:14:18;10.00;99.90
5972;DHT22;3012;49.944;8.454;2024-03-23T02:16:51;10.30;99.90
5972;DHT22;3012;49.944;8.454;2024-03-23T02:19:18;10.30;99.90
5972;DHT22;3012;49.944;8.454;2024-03-23T02:22:06;10.00;99.90
5972;DHT22;3012;49.944;8.454;2024-03-23T02:28:29;10.10;99.90
5972;DHT22;3012;49.944;8.454;2024-03-23T02:30:58;10.20;99.90
5972;DHT22;3012;49.944;8.454;2024-03-23T02:33:26;10.00;99.90
5972;DHT22;3012;49.944;8.454;2024-03-23T02:35:56;10.00;99.90
5972;DHT22;3012;49.944;8.454;2024-03-23T02:41:58;10.00;99.90
5972;DHT22;3012;49.944;8.454;2024-03-23T02:44:29;9.80;99.90
5972;DHT22;3012;49.944;8.454;2024-03-23T02:47:02;9.80;99.90
5972;DHT22;3012;49.944;8.454;2024-03-23T02:49:29;9.40;99.90
5972;DHT22;3012;49.944;8.454;2024-03-23T02:52:20;10.20;99.90
5972;DHT22;3012;49.944;8.454;2024-03-23T02:54:48;10.00;99.90
5972;DHT22;3012;49.944;8.454;2024-03-23T02:57:28;9.90;99.90
5972;DHT22;3012;49.944;8.454;2024-03-23T03:00:29;9.80;99.90
5972;DHT22;3012;49.944;8.454;2024-03-23T03:02:56;10.30;99.90
5972;DHT22;3012;49.944;8.454;2024-03-23T03:05:24;10.10;99.90
5972;DHT22;3012;49.944;8.454;2024-03-23T03:08:23;10.40;99.90
5972;DHT22;3012;49.944;8.454;2024-03-23T03:10:56;9.80;99.90
5972;DHT22;3012;49.944;8.454;2024-03-23T03:13:24;9.70;99.90
5972;DHT22;3012;49.944;8.454;2024-03-23T03:15:52;9.90;99.90
5972;DHT22;3012;49.944;8.454;2024-03-23T03:18:20;10.00;99.90
5972;DHT22;3012;49.944;8.454;2024-03-23T03:20:54;10.20;99.90
5972;DHT22;3012;49.944;8.454;2024-03-23T03:23:26;9.30;99.90
5972;DHT22;3012;49.944;8.454;2024-03-23T03:25:52;9.80;99.90
5972;DHT22;3012;49.944;8.454;2024-03-23T03:28:40;9.80;99.90
5972;DHT22;3012;49.944;8.454;2024-03-23T03:31:57;9.70;99.90
5972;DHT22;3012;49.944;8.454;2024-03-23T03:34:25;9.90;99.90
5972;DHT22;3012;49.944;8.454;2024-03-23T03:36:53;9.80;99.90
5972;DHT22;3012;49.944;8.454;2024-03-23T03:39:27;9.90;99.90
5972;DHT22;3012;49.944;8.454;2024-03-23T03:42:24;9.80;99.90
5972;DHT22;3012;49.944;8.454;2024-03-23T03:45:25;9.70;99.90
5972;DHT22;3012;49.944;8.454;2024-03-23T03:47:52;9.70;99.90
5972;DHT22;3012;49.944;8.454;2024-03-23T03:50:21;9.40;99.90
5972;DHT22;3012;49.944;8.454;2024-03-23T03:52:58;10.10;99.90
5972;DHT22;3012;49.944;8.454;2024-03-23T03:55:25;9.80;99.90
5972;DHT22;3012;49.944;8.454;2024-03-23T03:57:51;9.30;99.90
5972;DHT22;3012;49.944;8.454;2024-03-23T04:00:20;9.70;99.90
5972;DHT22;3012;49.944;8.454;2024-03-23T04:02:46;9.80;99.90
5972;DHT22;3012;49.944;8.454;2024-03-23T04:05:16;9.60;99.90
5972;DHT22;3012;49.944;8.454;2024-03-23T04:08:04;10.00;99.90
5972;DHT22;3012;49.944;8.454;2024-03-23T04:10:50;9.60;99.90
5972;DHT22;3012;49.944;8.454;2024-03-23T04:13:59;9.80;99.90
5972;DHT22;3012;49.944;8.454;2024-03-23T04:16:33;10.00;99.90
5972;DHT22;3012;49.944;8.454;2024-03-23T04:19:00;10.20;99.90
5972;DHT22;3012;49.944;8.454;2024-03-23T04:24:27;10.20;99.90
5972;DHT22;3012;49.944;8.454;2024-03-23T04:27:05;10.00;99.90
5972;DHT22;3012;49.944;8.454;2024-03-23T04:29:32;10.00;99.90
5972;DHT22;3012;49.944;8.454;2024-03-23T04:31:59;9.40;99.90
5972;DHT22;3012;49.944;8.454;2024-03-23T04:34:30;9.30;99.90
5972;DHT22;3012;49.944;8.454;2024-03-23T04:37:00;9.00;99.90
5972;DHT22;3012;49.944;8.454;2024-03-23T04:40:17;9.10;99.90
5972;DHT22;3012;49.944;8.454;2024-03-23T04:42:44;9.10;99.90
5972;DHT22;3012;49.944;8.454;2024-03-23T04:45:17;8.80;99.90
5972;DHT22;3012;49.944;8.454;2024-03-23T04:48:01;8.80;99.90
5972;DHT22;3012;49.944;8.454;2024-03-23T04:50:28;8.60;99.90
5972;DHT22;3012;49.944;8.454;2024-03-23T04:52:56;8.60;99.90
5972;DHT22;3012;49.944;8.454;2024-03-23T04:55:28;8.80;99.90
5972;DHT22;3012;49.944;8.454;2024-03-23T04:58:20;8.70;99.90
5972;DHT22;3012;49.944;8.454;2024-03-23T05:00:47;8.60;99.90
5972;DHT22;3012;49.944;8.454;2024-03-23T05:03:14;8.50;99.90
5972;DHT22;3012;49.944;8.454;2024-03-23T05:05:43;8.10;99.90
5972;DHT22;3012;49.944;8.454;2024-03-23T05:08:11;9.00;99.90
5972;DHT22;3012;49.944;8.454;2024-03-23T05:10:41;8.40;99.90
5972;DHT22;3012;49.944;8.454;2024-03-23T05:13:13;8.50;99.90
5972;DHT22;3012;49.944;8.454;2024-03-23T05:15:52;8.60;99.90
5972;DHT22;3012;49.944;8.454;2024-03-23T05:18:18;8.80;99.90
5972;DHT22;3012;49.944;8.454;2024-03-23T05:23:32;8.70;99.90
5972;DHT22;3012;49.944;8.454;2024-03-23T05:26:18;8.70;99.90
5972;DHT22;3012;49.944;8.454;2024-03-23T05:29:27;8.60;99.90
5972;DHT22;3012;49.944;8.454;2024-03-23T05:31:55;8.90;99.90
5972;DHT22;3012;49.944;8.454;2024-03-23T05:34:30;9.20;99.90
5972;DHT22;3012;49.944;8.454;2024-03-23T05:37:24;8.80;99.90
5972;DHT22;3012;49.944;8.454;2024-03-23T05:39:55;8.70;99.90
5972;DHT22;3012;49.944;8.454;2024-03-23T05:42:23;8.70;99.90
5972;DHT22;3012;49.944;8.454;2024-03-23T05:44:52;8.70;99.90
5972;DHT22;3012;49.944;8.454;2024-03-23T05:47:24;8.80;99.90
5972;DHT22;3012;49.944;8.454;2024-03-23T05:50:11;8.80;99.90
5972;DHT22;3012;49.944;8.454;2024-03-23T05:52:45;8.80;99.90
5972;DHT22;3012;49.944;8.454;2024-03-23T05:55:16;8.70;99.90
5972;DHT22;3012;49.944;8.454;2024-03-23T05:57:49;9.20;99.90
5972;DHT22;3012;49.944;8.454;2024-03-23T06:00:16;8.70;99.90
5972;DHT22;3012;49.944;8.454;2024-03-23T06:02:44;8.80;99.90
5972;DHT22;3012;49.944;8.454;2024-03-23T06:05:11;8.60;99.90
5972;DHT22;3012;49.944;8.454;2024-03-23T06:08:33;8.70;99.90
5972;DHT22;3012;49.944;8.454;2024-03-23T06:11:01;8.70;99.90
5972;DHT22;3012;49.944;8.454;2024-03-23T06:13:30;8.30;99.90
5972;DHT22;3012;49.944;8.454;2024-03-23T06:16:06;8.30;99.90
5972;DHT22;3012;49.944;8.454;2024-03-23T06:18:32;8.60;99.90
5972;DHT22;3012;49.944;8.454;2024-03-23T06:21:00;8.30;99.90
5972;DHT22;3012;49.944;8.454;2024-03-23T06:23:51;8.70;99.90
5972;DHT22;3012;49.944;8.454;2024-03-23T06:26:19;8.80;99.90
5972;DHT22;3012;49.944;8.454;2024-03-23T06:28:47;8.90;99.90
5972;DHT22;3012;49.944;8.454;2024-03-23T06:31:15;8.80;99.90
5972;DHT22;3012;49.944;8.454;2024-03-23T06:33:43;8.30;99.90
5972;DHT22;3012;49.944;8.454;2024-03-23T06:36:12;8.30;99.90
5972;DHT22;3012;49.944;8.454;2024-03-23T06:38:48;8.70;99.90
5972;DHT22;3012;49.944;8.454;2024-03-23T06:41:52;8.80;99.90
5972;DHT22;3012;49.944;8.454;2024-03-23T06:44:25;8.70;99.90
5972;DHT22;3012;49.944;8.454;2024-03-23T06:47:11;8.80;99.90
5972;DHT22;3012;49.944;8.454;2024-03-23T06:49:41;8.80;99.90
5972;DHT22;3012;49.944;8.454;2024-03-23T06:52:18;8.80;99.90
5972;DHT22;3012;49.944;8.454;2024-03-23T06:54:53;8.80;99.90
5972;DHT22;3012;49.944;8.454;2024-03-23T06:57:24;8.80;99.90
5972;DHT22;3012;49.944;8.454;2024-03-23T06:59:53;8.70;99.90
5972;DHT22;3012;49.944;8.454;2024-03-23T07:02:20;8.70;99.90
5972;DHT22;3012;49.944;8.454;2024-03-23T07:04:48;8.50;99.90
5972;DHT22;3012;49.944;8.454;2024-03-23T07:07:14;9.40;99.90
5972;DHT22;3012;49.944;8.454;2024-03-23T07:09:41;8.90;99.90
5972;DHT22;3012;49.944;8.454;2024-03-23T07:12:08;9.40;99.90
5972;DHT22;3012;49.944;8.454;2024-03-23T07:14:36;8.80;99.90
5972;DHT22;3012;49.944;8.454;2024-03-23T07:17:23;8.80;99.90
5972;DHT22;3012;49.944;8.454;2024-03-23T07:19:55;8.80;99.90
5972;DHT22;3012;49.944;8.454;2024-03-23T07:22:21;8.40;99.90
5972;DHT22;3012;49.944;8.454;2024-03-23T07:25:12;8.50;99.90
5972;DHT22;3012;49.944;8.454;2024-03-23T07:28:11;8.60;99.90
5972;DHT22;3012;49.944;8.454;2024-03-23T07:30:39;8.90;99.90
5972;DHT22;3012;49.944;8.454;2024-03-23T07:33:23;9.10;99.90
5972;DHT22;3012;49.944;8.454;2024-03-23T07:35:51;8.60;99.90
5972;DHT22;3012;49.944;8.454;2024-03-23T07:38:17;9.60;99.90
5972;DHT22;3012;49.944;8.454;2024-03-23T07:40:44;9.10;99.90
5972;DHT22;3012;49.944;8.454;2024-03-23T07:43:10;9.10;99.90
5972;DHT22;3012;49.944;8.454;2024-03-23T07:45:40;9.30;99.90
5972;DHT22;3012;49.944;8.454;2024-03-23T07:48:08;9.40;99.90
5972;DHT22;3012;49.944;8.454;2024-03-23T07:50:38;9.60;99.90
5972;DHT22;3012;49.944;8.454;2024-03-23T07:53:08;10.10;99.90
5972;DHT22;3012;49.944;8.454;2024-03-23T07:55:38;9.50;99.90
5972;DHT22;3012;49.944;8.454;2024-03-23T07:58:12;9.30;99.90
5972;DHT22;3012;49.944;8.454;2024-03-23T08:00:39;9.40;99.90
5972;DHT22;3012;49.944;8.454;2024-03-23T08:03:09;9.40;99.90
5972;DHT22;3012;49.944;8.454;2024-03-23T08:05:37;9.40;99.90
5972;DHT22;3012;49.944;8.454;2024-03-23T08:08:08;9.50;99.90
5972;DHT22;3012;49.944;8.454;2024-03-23T08:10:34;9.00;99.90
5972;DHT22;3012;49.944;8.454;2024-03-23T08:13:04;9.10;99.90
5972;DHT22;3012;49.944;8.454;2024-03-23T08:15:31;9.20;99.90
5972;DHT22;3012;49.944;8.454;2024-03-23T08:18:00;9.50;99.90
5972;DHT22;3012;49.944;8.454;2024-03-23T08:20:28;9.00;99.90
5972;DHT22;3012;49.944;8.454;2024-03-23T08:22:56;9.50;99.90
5972;DHT22;3012;49.944;8.454;2024-03-23T08:25:32;9.50;99.90
5972;DHT22;3012;49.944;8.454;2024-03-23T08:27:59;9.20;99.90
5972;DHT22;3012;49.944;8.454;2024-03-23T08:30:28;10.00;99.90
5972;DHT22;3012;49.944;8.454;2024-03-23T08:33:10;9.90;99.90
5972;DHT22;3012;49.944;8.454;2024-03-23T08:36:31;9.80;99.90
5972;DHT22;3012;49.944;8.454;2024-03-23T08:42:36;10.10;99.90
5972;DHT22;3012;49.944;8.454;2024-03-23T08:45:04;10.40;99.90
5972;DHT22;3012;49.944;8.454;2024-03-23T08:50:24;10.30;99.90
5972;DHT22;3012;49.944;8.454;2024-03-23T08:52:57;11.10;99.90
5972;DHT22;3012;49.944;8.454;2024-03-23T08:55:26;11.30;99.90
5972;DHT22;3012;49.944;8.454;2024-03-23T08:59:05;12.00;99.90
5972;DHT22;3012;49.944;8.454;2024-03-23T09:01:32;12.00;99.90
5972;DHT22;3012;49.944;8.454;2024-03-23T09:04:00;12.70;99.90
5972;DHT22;3012;49.944;8.454;2024-03-23T09:06:27;12.00;99.60
5972;DHT22;3012;49.944;8.454;2024-03-23T09:08:55;11.70;99.80
5972;DHT22;3012;49.944;8.454;2024-03-23T09:11:22;11.80;99.90
5972;DHT22;3012;49.944;8.454;2024-03-23T09:17:30;11.20;99.90
5972;DHT22;3012;49.944;8.454;2024-03-23T09:20:00;11.30;99.90
5972;DHT22;3012;49.944;8.454;2024-03-23T09:22:28;11.90;99.90
5972;DHT22;3012;49.944;8.454;2024-03-23T09:25:17;11.90;99.20
5972;DHT22;3012;49.944;8.454;2024-03-23T09:28:41;11.70;96.60
5972;DHT22;3012;49.944;8.454;2024-03-23T09:32:11;11.50;97.30
5972;DHT22;3012;49.944;8.454;2024-03-23T09:34:39;10.90;95.80
5972;DHT22;3012;49.944;8.454;2024-03-23T09:37:05;11.80;96.70
5972;DHT22;3012;49.944;8.454;2024-03-23T09:39:42;12.00;96.40
5972;DHT22;3012;49.944;8.454;2024-03-23T09:42:08;12.10;94.90
5972;DHT22;3012;49.944;8.454;2024-03-23T09:44:35;12.70;94.60
5972;DHT22;3012;49.944;8.454;2024-03-23T09:47:14;12.70;93.50
5972;DHT22;3012;49.944;8.454;2024-03-23T09:49:59;12.30;93.60
5972;DHT22;3012;49.944;8.454;2024-03-23T09:52:32;12.50;93.40
5972;DHT22;3012;49.944;8.454;2024-03-23T09:55:15;12.50;93.90
5972;DHT22;3012;49.944;8.454;2024-03-23T09:58:18;13.10;93.20
5972;DHT22;3012;49.944;8.454;2024-03-23T10:01:01;12.60;92.10
5972;DHT22;3012;49.944;8.454;2024-03-23T10:03:43;12.30;91.10
5972;DHT22;3012;49.944;8.454;2024-03-23T10:06:13;12.30;92.30
5972;DHT22;3012;49.944;8.454;2024-03-23T10:08:40;11.90;91.00
5972;DHT22;3012;49.944;8.454;2024-03-23T10:11:25;11.70;91.20
5972;DHT22;3012;49.944;8.454;2024-03-23T10:14:29;11.10;90.60
5972;DHT22;3012;49.944;8.454;2024-03-23T10:17:12;10.70;91.00
5972;DHT22;3012;49.944;8.454;2024-03-23T10:19:56;10.70;92.30
5972;DHT22;3012;49.944;8.454;2024-03-23T10:22:37;10.80;92.60
5972;DHT22;3012;49.944;8.454;2024-03-23T10:25:07;11.00;91.90
5972;DHT22;3012;49.944;8.454;2024-03-23T10:27:35;11.00;93.10
5972;DHT22;3012;49.944;8.454;2024-03-23T10:30:09;11.00;92.90
5972;DHT22;3012;49.944;8.454;2024-03-23T10:32:43;11.40;91.90
5972;DHT22;3012;49.944;8.454;2024-03-23T10:35:28;11.60;92.10
5972;DHT22;3012;49.944;8.454;2024-03-23T10:37:57;11.40;90.00
5972;DHT22;3012;49.944;8.454;2024-03-23T10:40:25;10.80;90.40
5972;DHT22;3012;49.944;8.454;2024-03-23T10:43:00;10.30;92.90
5972;DHT22;3012;49.944;8.454;2024-03-23T10:45:32;10.00;94.30
5972;DHT22;3012;49.944;8.454;2024-03-23T10:48:07;9.20;93.20
5972;DHT22;3012;49.944;8.454;2024-03-23T10:50:34;9.60;97.60
5972;DHT22;3012;49.944;8.454;2024-03-23T10:53:04;9.60;95.20
5972;DHT22;3012;49.944;8.454;2024-03-23T10:55:32;9.30;96.40
5972;DHT22;3012;49.944;8.454;2024-03-23T10:58:10;9.40;97.50
5972;DHT22;3012;49.944;8.454;2024-03-23T11:00:38;8.80;99.70
5972;DHT22;3012;49.944;8.454;2024-03-23T11:03:30;8.80;99.90
5972;DHT22;3012;49.944;8.454;2024-03-23T11:06:45;8.40;99.60
5972;DHT22;3012;49.944;8.454;2024-03-23T11:09:41;8.20;99.90
5972;DHT22;3012;49.944;8.454;2024-03-23T11:12:46;8.40;99.90
5972;DHT22;3012;49.944;8.454;2024-03-23T11:15:39;8.40;99.90
5972;DHT22;3012;49.944;8.454;2024-03-23T11:18:06;8.50;99.90
5972;DHT22;3012;49.944;8.454;2024-03-23T11:20:38;8.80;99.90
5972;DHT22;3012;49.944;8.454;2024-03-23T11:23:06;8.40;99.90
5972;DHT22;3012;49.944;8.454;2024-03-23T11:25:35;8.40;99.90
5972;DHT22;3012;49.944;8.454;2024-03-23T11:28:10;8.50;99.90
5972;DHT22;3012;49.944;8.454;2024-03-23T11:31:00;8.30;99.90
5972;DHT22;3012;49.944;8.454;2024-03-23T11:33:28;8.30;99.90
5972;DHT22;3012;49.944;8.454;2024-03-23T11:35:56;8.50;99.90
5972;DHT22;3012;49.944;8.454;2024-03-23T11:38:24;9.40;99.90
5972;DHT22;3012;49.944;8.454;2024-03-23T11:41:03;11.30;99.90
5972;DHT22;3012;49.944;8.454;2024-03-23T11:43:31;15.30;95.80
5972;DHT22;3012;49.944;8.454;2024-03-23T11:46:29;18.80;92.20
5972;DHT22;3012;49.944;8.454;2024-03-23T11:48:56;22.30;73.20
5972;DHT22;3012;49.944;8.454;2024-03-23T11:51:23;24.30;60.30
5972;DHT22;3012;49.944;8.454;2024-03-23T11:53:50;26.10;52.10
5972;DHT22;3012;49.944;8.454;2024-03-23T11:56:20;25.60;49.50
5972;DHT22;3012;49.944;8.454;2024-03-23T11:58:46;26.10;46.20
5972;DHT22;3012;49.944;8.454;2024-03-23T12:01:14;27.10;45.50
5972;DHT22;3012;49.944;8.454;2024-03-23T12:03:44;27.20;41.40
5972;DHT22;3012;49.944;8.454;2024-03-23T12:06:11;26.60;40.50
5972;DHT22;3012;49.944;8.454;2024-03-23T12:08:43;27.40;42.20
5972;DHT22;3012;49.944;8.454;2024-03-23T12:11:13;29.20;39.90
5972;DHT22;3012;49.944;8.454;2024-03-23T12:13:45;30.40;37.50
5972;DHT22;3012;49.944;8.454;2024-03-23T12:16:18;29.40;35.90
5972;DHT22;3012;49.944;8.454;2024-03-23T12:18:47;28.90;36.30
5972;DHT22;3012;49.944;8.454;2024-03-23T12:21:16;30.30;36.60
5972;DHT22;3012;49.944;8.454;2024-03-23T12:23:43;29.40;34.60
5972;DHT22;3012;49.944;8.454;2024-03-23T12:26:14;27.70;37.30
5972;DHT22;3012;49.944;8.454;2024-03-23T12:29:07;28.00;36.40
5972;DHT22;3012;49.944;8.454;2024-03-23T12:31:49;27.50;35.90
5972;DHT22;3012;49.944;8.454;2024-03-23T12:34:29;26.40;38.30
5972;DHT22;3012;49.944;8.454;2024-03-23T12:36:58;23.00;40.00
5972;DHT22;3012;49.944;8.454;2024-03-23T12:39:32;21.40;42.80
5972;DHT22;3012;49.944;8.454;2024-03-23T12:42:05;19.50;44.40
5972;DHT22;3012;49.944;8.454;2024-03-23T12:44:58;18.70;46.40
5972;DHT22;3012;49.944;8.454;2024-03-23T12:47:43;17.70;48.80
5972;DHT22;3012;49.944;8.454;2024-03-23T12:50:18;18.10;49.00
5972;DHT22;3012;49.944;8.454;2024-03-23T12:52:46;17.90;49.80
5972;DHT22;3012;49.944;8.454;2024-03-23T12:55:32;17.00;51.50
5972;DHT22;3012;49.944;8.454;2024-03-23T12:58:02;15.00;52.40
5972;DHT22;3012;49.944;8.454;2024-03-23T13:00:31;13.90;55.40
5972;DHT22;3012;49.944;8.454;2024-03-23T13:02:58;12.30;56.40
5972;DHT22;3012;49.944;8.454;2024-03-23T13:05:25;11.70;61.40
5972;DHT22;3012;49.944;8.454;2024-03-23T13:07:58;11.70;69.50
5972;DHT22;3012;49.944;8.454;2024-03-23T13:10:39;10.10;78.90
5972;DHT22;3012;49.944;8.454;2024-03-23T13:13:06;9.10;91.70
5972;DHT22;3012;49.944;8.454;2024-03-23T13:15:35;8.50;96.40
5972;DHT22;3012;49.944;8.454;2024-03-23T13:18:27;8.30;99.30
5972;DHT22;3012;49.944;8.454;2024-03-23T13:21:02;9.10;99.90
5972;DHT22;3012;49.944;8.454;2024-03-23T13:23:31;9.60;99.90
5972;DHT22;3012;49.944;8.454;2024-03-23T13:26:21;10.10;99.90
5972;DHT22;3012;49.944;8.454;2024-03-23T13:28:57;12.40;99.90
5972;DHT22;3012;49.944;8.454;2024-03-23T13:31:24;12.30;98.40
5972;DHT22;3012;49.944;8.454;2024-03-23T13:33:52;15.60;97.00
5972;DHT22;3012;49.944;8.454;2024-03-23T13:36:21;19.10;90.60
5972;DHT22;3012;49.944;8.454;2024-03-23T13:39:31;19.80;78.30
5972;DHT22;3012;49.944;8.454;2024-03-23T13:41:59;19.00;77.30
5972;DHT22;3012;49.944;8.454;2024-03-23T13:44:35;19.80;73.20
5972;DHT22;3012;49.944;8.454;2024-03-23T13:47:20;22.00;67.80
5972;DHT22;3012;49.944;8.454;2024-03-23T13:49:50;20.70;59.40
5972;DHT22;3012;49.944;8.454;2024-03-23T13:52:25;20.90;61.20
5972;DHT22;3012;49.944;8.454;2024-03-23T13:55:04;19.30;58.10
5972;DHT22;3012;49.944;8.454;2024-03-23T13:57:38;16.60;66.60
5972;DHT22;3012;49.944;8.454;2024-03-23T14:00:09;16.60;69.20
5972;DHT22;3012;49.944;8.454;2024-03-23T14:02:42;15.30;68.00
5972;DHT22;3012;49.944;8.454;2024-03-23T14:05:12;15.40;71.60
5972;DHT22;3012;49.944;8.454;2024-03-23T14:07:40;16.60;72.70
5972;DHT22;3012;49.944;8.454;2024-03-23T14:10:13;17.70;70.10
5972;DHT22;3012;49.944;8.454;2024-03-23T14:12:42;18.60;65.10
5972;DHT22;3012;49.944;8.454;2024-03-23T14:15:20;17.70;65.50
5972;DHT22;3012;49.944;8.454;2024-03-23T14:17:49;16.20;66.10
5972;DHT22;3012;49.944;8.454;2024-03-23T14:20:17;16.20;68.80
5972;DHT22;3012;49.944;8.454;2024-03-23T14:22:53;15.70;69.20
5972;DHT22;3012;49.944;8.454;2024-03-23T14:25:23;14.00;72.00
5972;DHT22;3012;49.944;8.454;2024-03-23T14:27:53;13.60;70.70
5972;DHT22;3012;49.944;8.454;2024-03-23T14:30:21;12.50;72.90
5972;DHT22;3012;49.944;8.454;2024-03-23T14:32:50;12.70;75.00
5972;DHT22;3012;49.944;8.454;2024-03-23T14:35:36;12.70;76.60
5972;DHT22;3012;49.944;8.454;2024-03-23T14:38:05;12.70;78.60
5972;DHT22;3012;49.944;8.454;2024-03-23T14:40:57;13.10;76.30
5972;DHT22;3012;49.944;8.454;2024-03-23T14:43:47;12.70;73.30
5972;DHT22;3012;49.944;8.454;2024-03-23T14:46:22;12.50;70.80
5972;DHT22;3012;49.944;8.454;2024-03-23T14:48:49;11.60;70.30
5972;DHT22;3012;49.944;8.454;2024-03-23T14:51:16;11.60;73.80
5972;DHT22;3012;49.944;8.454;2024-03-23T14:53:46;11.40;70.70
5972;DHT22;3012;49.944;8.454;2024-03-23T14:56:15;11.70;72.60
5972;DHT22;3012;49.944;8.454;2024-03-23T14:58:42;11.60;74.20
5972;DHT22;3012;49.944;8.454;2024-03-23T15:01:14;11.90;72.30
5972;DHT22;3012;49.944;8.454;2024-03-23T15:03:54;12.80;72.00
5972;DHT22;3012;49.944;8.454;2024-03-23T15:06:25;12.20;70.00
5972;DHT22;3012;49.944;8.454;2024-03-23T15:08:53;12.80;71.50
5972;DHT22;3012;49.944;8.454;2024-03-23T15:11:25;11.80;71.00
5972;DHT22;3012;49.944;8.454;2024-03-23T15:13:53;12.40;69.70
5972;DHT22;3012;49.944;8.454;2024-03-23T15:16:50;11.60;70.00
5972;DHT22;3012;49.944;8.454;2024-03-23T15:19:30;11.70;73.30
5972;DHT22;3012;49.944;8.454;2024-03-23T15:22:01;11.80;76.40
5972;DHT22;3012;49.944;8.454;2024-03-23T15:24:28;11.70;72.20
5972;DHT22;3012;49.944;8.454;2024-03-23T15:27:03;10.80;72.90
5972;DHT22;3012;49.944;8.454;2024-03-23T15:29:33;11.10;75.70
5972;DHT22;3012;49.944;8.454;2024-03-23T15:32:02;10.10;77.20
5972;DHT22;3012;49.944;8.454;2024-03-23T15:34:31;10.50;77.00
5972;DHT22;3012;49.944;8.454;2024-03-23T15:36:58;10.30;86.80
5972;DHT22;3012;49.944;8.454;2024-03-23T15:39:26;10.00;89.80
5972;DHT22;3012;49.944;8.454;2024-03-23T15:41:54;9.70;91.10
5972;DHT22;3012;49.944;8.454;2024-03-23T15:44:32;9.90;91.10
5972;DHT22;3012;49.944;8.454;2024-03-23T15:47:03;9.80;91.50
5972;DHT22;3012;49.944;8.454;2024-03-23T15:49:37;9.80;91.10
5972;DHT22;3012;49.944;8.454;2024-03-23T15:52:07;9.90;91.30
5972;DHT22;3012;49.944;8.454;2024-03-23T15:54:40;9.20;90.70
5972;DHT22;3012;49.944;8.454;2024-03-23T15:57:33;9.50;91.10
5972;DHT22;3012;49.944;8.454;2024-03-23T16:02:56;9.90;91.90
5972;DHT22;3012;49.944;8.454;2024-03-23T16:05:26;9.50;91.30
5972;DHT22;3012;49.944;8.454;2024-03-23T16:08:25;9.50;91.20
5972;DHT22;3012;49.944;8.454;2024-03-23T16:10:53;8.90;90.00
5972;DHT22;3012;49.944;8.454;2024-03-23T16:13:23;9.40;91.60
5972;DHT22;3012;49.944;8.454;2024-03-23T16:15:56;9.50;90.40
5972;DHT22;3012;49.944;8.454;2024-03-23T16:18:24;9.50;90.30
5972;DHT22;3012;49.944;8.454;2024-03-23T16:20:56;9.40;89.70
5972;DHT22;3012;49.944;8.454;2024-03-23T16:23:23;9.60;89.40
5972;DHT22;3012;49.944;8.454;2024-03-23T16:25:56;9.60;91.10
5972;DHT22;3012;49.944;8.454;2024-03-23T16:28:25;9.50;90.20
5972;DHT22;3012;49.944;8.454;2024-03-23T16:31:03;9.60;90.60
5972;DHT22;3012;49.944;8.454;2024-03-23T16:33:35;9.70;90.50
5972;DHT22;3012;49.944;8.454;2024-03-23T16:36:05;9.70;90.80
5972;DHT22;3012;49.944;8.454;2024-03-23T16:38:34;9.60;88.10
5972;DHT22;3012;49.944;8.454;2024-03-23T16:41:03;9.80;89.30
5972;DHT22;3012;49.944;8.454;2024-03-23T16:43:34;9.80;89.90
5972;DHT22;3012;49.944;8.454;2024-03-23T16:46:26;9.90;91.10
5972;DHT22;3012;49.944;8.454;2024-03-23T16:48:54;10.00;89.00
5972;DHT22;3012;49.944;8.454;2024-03-23T16:51:29;9.60;90.60
5972;DHT22;3012;49.944;8.454;2024-03-23T16:54:01;9.50;89.40
5972;DHT22;3012;49.944;8.454;2024-03-23T16:56:28;9.50;89.00
5972;DHT22;3012;49.944;8.454;2024-03-23T16:58:59;9.20;88.50
5972;DHT22;3012;49.944;8.454;2024-03-23T17:01:27;9.40;85.60
5972;DHT22;3012;49.944;8.454;2024-03-23T17:04:02;9.20;88.50
5972;DHT22;3012;49.944;8.454;2024-03-23T17:06:44;9.10;86.80
5972;DHT22;3012;49.944;8.454;2024-03-23T17:09:11;9.10;84.70
5972;DHT22;3012;49.944;8.454;2024-03-23T17:11:51;9.00;87.00
5972;DHT22;3012;49.944;8.454;2024-03-23T17:14:23;9.40;88.50
5972;DHT22;3012;49.944;8.454;2024-03-23T17:16:53;8.70;87.00
5972;DHT22;3012;49.944;8.454;2024-03-23T17:19:20;9.60;88.50
5972;DHT22;3012;49.944;8.454;2024-03-23T17:22:23;9.30;87.50
5972;DHT22;3012;49.944;8.454;2024-03-23T17:24:53;9.10;86.30
5972;DHT22;3012;49.944;8.454;2024-03-23T17:27:36;9.00;89.60
5972;DHT22;3012;49.944;8.454;2024-03-23T17:30:14;9.10;90.30
5972;DHT22;3012;49.944;8.454;2024-03-23T17:32:43;9.10;87.90
5972;DHT22;3012;49.944;8.454;2024-03-23T17:35:17;8.90;87.50
5972;DHT22;3012;49.944;8.454;2024-03-23T17:37:48;9.10;88.10
5972;DHT22;3012;49.944;8.454;2024-03-23T17:40:18;8.90;88.10
5972;DHT22;3012;49.944;8.454;2024-03-23T17:42:51;8.80;88.50
5972;DHT22;3012;49.944;8.454;2024-03-23T17:45:29;8.70;90.40
5972;DHT22;3012;49.944;8.454;2024-03-23T17:47:58;8.70;91.20
5972;DHT22;3012;49.944;8.454;2024-03-23T17:50:27;8.30;91.60
5972;DHT22;3012;49.944;8.454;2024-03-23T17:53:09;8.60;90.90
5972;DHT22;3012;49.944;8.454;2024-03-23T17:55:52;9.20;91.80
5972;DHT22;3012;49.944;8.454;2024-03-23T17:58:34;9.00;92.10
5972;DHT22;3012;49.944;8.454;2024-03-23T18:01:24;8.10;92.50
5972;DHT22;3012;49.944;8.454;2024-03-23T18:03:53;8.10;92.00
5972;DHT22;3012;49.944;8.454;2024-03-23T18:06:20;8.60;92.30
5972;DHT22;3012;49.944;8.454;2024-03-23T18:08:46;8.50;91.20
5972;DHT22;3012;49.944;8.454;2024-03-23T18:11:18;7.90;91.40
5972;DHT22;3012;49.944;8.454;2024-03-23T18:13:49;8.50;91.70
5972;DHT22;3012;49.944;8.454;2024-03-23T18:16:16;8.50;92.70
5972;DHT22;3012;49.944;8.454;2024-03-23T18:18:45;8.30;90.80
5972;DHT22;3012;49.944;8.454;2024-03-23T18:21:13;8.50;92.60
5972;DHT22;3012;49.944;8.454;2024-03-23T18:23:40;8.30;92.90
5972;DHT22;3012;49.944;8.454;2024-03-23T18:26:07;8.00;92.50
5972;DHT22;3012;49.944;8.454;2024-03-23T18:28:50;8.30;92.50
5972;DHT22;3012;49.944;8.454;2024-03-23T18:31:28;8.30;93.10
5972;DHT22;3012;49.944;8.454;2024-03-23T18:33:58;8.70;94.60
5972;DHT22;3012;49.944;8.454;2024-03-23T18:39:31;8.20;94.70
5972;DHT22;3012;49.944;8.454;2024-03-23T18:41:58;7.70;94.40
5972;DHT22;3012;49.944;8.454;2024-03-23T18:44:50;8.20;94.80